Time;durP1;ratioP1;P1;durP2;ratioP2;P2;SDS_P1;SDS_P2;PMS_P1;PMS_P2;Temp;Humidity;BMP_temperature;BMP_pressure;BME280_temperature;BME280_humidity;BME280_pressure;Samples;Min_cycle;Max_cycle;Signal;HPM_P1;HPM_P2
2022/08/31 00:04:44;;;;;;;3.07;2.77;;;20.40;99.90;;;;;;5027370;28;20599;-73
2022/08/31 00:07:09;;;;;;;3.60;2.40;;;20.30;99.90;;;;;;5028829;28;20522;-73
2022/08/31 00:09:35;;;;;;;3.13;2.70;;;20.20;99.90;;;;;;5030035;28;20172;-72
2022/08/31 00:12:02;;;;;;;2.43;2.23;;;20.10;99.90;;;;;;5028963;28;20183;-73
2022/08/31 00:14:27;;;;;;;3.60;2.60;;;20.10;99.90;;;;;;5027368;28;20465;-73
2022/08/31 00:16:53;;;;;;;3.30;2.30;;;20.00;99.90;;;;;;5030605;28;20808;-72
2022/08/31 00:19:19;;;;;;;2.47;2.27;;;20.00;99.90;;;;;;5029002;28;20618;-71
2022/08/31 00:21:44;;;;;;;4.00;2.50;;;19.90;99.90;;;;;;5030515;28;20179;-73
2022/08/31 00:24:10;;;;;;;2.87;2.43;;;19.90;99.90;;;;;;5030438;28;20229;-72
2022/08/31 00:26:36;;;;;;;4.27;2.80;;;19.90;99.90;;;;;;5027303;28;20210;-73
2022/08/31 00:29:03;;;;;;;3.07;2.80;;;19.80;99.90;;;;;;5030488;28;20426;-72
2022/08/31 00:31:29;;;;;;;2.57;2.20;;;19.80;99.90;;;;;;5031235;28;20163;-73
2022/08/31 00:33:55;;;;;;;3.60;3.00;;;19.70;99.90;;;;;;5029846;28;20934;-71
2022/08/31 00:36:22;;;;;;;3.00;2.37;;;19.70;99.90;;;;;;5028325;28;20200;-73
2022/08/31 00:38:49;;;;;;;3.30;2.83;;;19.70;99.90;;;;;;5040690;28;20418;-72
2022/08/31 00:41:16;;;;;;;4.00;3.60;;;19.60;99.90;;;;;;5034853;28;20479;-72
2022/08/31 00:43:51;;;;;;;3.57;2.40;;;19.60;99.90;;;;;;5032421;28;20461;-72
2022/08/31 00:46:23;;;;;;;6.87;2.97;;;19.60;99.90;;;;;;5034830;28;20408;-73
2022/08/31 00:49:07;;;;;;;2.57;2.17;;;19.50;99.90;;;;;;5033802;28;20985;-72
2022/08/31 00:51:42;;;;;;;2.40;2.00;;;19.50;99.90;;;;;;5027904;28;20524;-72
2022/08/31 00:54:11;;;;;;;4.37;3.50;;;19.50;99.90;;;;;;5025601;28;20465;-72
2022/08/31 00:56:38;;;;;;;3.43;2.67;;;19.40;99.90;;;;;;5029832;28;20897;-71
2022/08/31 00:59:03;;;;;;;3.23;2.93;;;19.40;99.90;;;;;;5033226;28;20957;-73
2022/08/31 01:01:29;;;;;;;2.93;2.47;;;19.40;99.90;;;;;;5033961;28;20427;-73
2022/08/31 01:03:56;;;;;;;3.20;2.90;;;19.30;99.90;;;;;;5033010;28;20188;-72
2022/08/31 01:06:22;;;;;;;3.63;2.87;;;19.30;99.90;;;;;;5031975;28;20187;-72
2022/08/31 01:08:49;;;;;;;2.87;2.67;;;19.30;99.90;;;;;;5031065;28;20464;-73
2022/08/31 01:11:17;;;;;;;4.03;2.33;;;19.30;99.90;;;;;;5038869;28;20774;-72
2022/08/31 01:13:43;;;;;;;3.57;2.80;;;19.20;99.90;;;;;;5033457;28;20450;-71
2022/08/31 01:16:16;;;;;;;3.73;2.87;;;19.20;99.90;;;;;;5031878;28;20843;-72
2022/08/31 01:18:43;;;;;;;3.87;3.00;;;19.20;99.90;;;;;;5033610;28;20472;-72
2022/08/31 01:21:34;;;;;;;2.77;2.20;;;19.10;99.90;;;;;;5033551;28;20440;-72
2022/08/31 01:24:01;;;;;;;4.20;2.70;;;19.10;99.90;;;;;;5031290;28;20452;-72
2022/08/31 01:26:29;;;;;;;4.20;3.00;;;19.10;99.90;;;;;;5033832;28;20413;-73
2022/08/31 01:28:59;;;;;;;8.20;3.50;;;19.10;99.90;;;;;;5030903;28;20998;-72
2022/08/31 01:31:43;;;;;;;3.50;3.13;;;19.10;99.90;;;;;;5032089;28;20450;-72
2022/08/31 01:34:09;;;;;;;2.90;2.50;;;19.10;99.90;;;;;;5026271;28;20488;-71
2022/08/31 01:36:37;;;;;;;3.63;3.13;;;19.00;99.90;;;;;;5032124;28;20462;-71
2022/08/31 01:39:05;;;;;;;4.27;2.73;;;19.00;99.90;;;;;;5027208;28;20233;-72
2022/08/31 01:41:31;;;;;;;6.90;2.60;;;19.00;99.90;;;;;;5045412;28;20423;-73
2022/08/31 01:43:57;;;;;;;3.50;2.40;;;19.00;99.90;;;;;;5031866;28;20480;-73
2022/08/31 01:46:23;;;;;;;2.90;2.57;;;19.00;99.90;;;;;;5031327;28;21053;-73
2022/08/31 01:48:49;;;;;;;4.97;3.30;;;19.00;99.90;;;;;;5031464;28;20505;-72
2022/08/31 01:51:17;;;;;;;5.27;3.37;;;18.90;99.90;;;;;;5031733;28;20520;-72
2022/08/31 01:53:45;;;;;;;3.93;2.80;;;18.90;99.90;;;;;;5032454;28;20962;-72
2022/08/31 01:56:18;;;;;;;4.83;3.20;;;18.90;99.90;;;;;;5031044;28;20462;-72
2022/08/31 01:58:43;;;;;;;4.37;2.80;;;18.90;99.90;;;;;;5032960;28;20430;-71
2022/08/31 02:01:10;;;;;;;6.47;3.10;;;18.90;99.90;;;;;;5031397;28;20888;-71
2022/08/31 02:03:35;;;;;;;2.63;2.20;;;18.80;99.90;;;;;;5032166;28;20208;-72
2022/08/31 02:06:12;;;;;;;4.07;2.63;;;18.80;99.90;;;;;;5032021;28;20480;-71
2022/08/31 02:08:38;;;;;;;4.93;2.97;;;18.80;99.90;;;;;;5029923;28;20186;-72
2022/08/31 02:11:06;;;;;;;3.20;2.90;;;18.80;99.90;;;;;;5033218;28;20965;-71
2022/08/31 02:13:33;;;;;;;4.47;3.20;;;18.80;99.90;;;;;;5031816;28;20454;-71
2022/08/31 02:15:59;;;;;;;3.23;2.83;;;18.80;99.90;;;;;;5030854;28;20473;-72
2022/08/31 02:18:25;;;;;;;2.93;2.63;;;18.80;99.90;;;;;;5031821;28;20434;-71
2022/08/31 02:20:51;;;;;;;3.23;2.57;;;18.80;99.90;;;;;;5031982;28;20182;-71
2022/08/31 02:23:16;;;;;;;2.93;2.63;;;18.80;99.90;;;;;;5032288;28;20454;-72
2022/08/31 02:25:42;;;;;;;3.13;2.70;;;18.80;99.90;;;;;;5030783;28;20194;-72
2022/08/31 02:28:11;;;;;;;3.70;2.73;;;18.70;99.90;;;;;;5032190;28;20175;-72
2022/08/31 02:30:37;;;;;;;3.53;2.70;;;18.70;99.90;;;;;;5030734;28;20179;-72
2022/08/31 02:33:02;;;;;;;4.50;3.00;;;18.70;99.90;;;;;;5031066;28;20981;-72
2022/08/31 02:35:28;;;;;;;3.60;3.10;;;18.60;99.90;;;;;;5032281;28;20199;-72
2022/08/31 02:37:54;;;;;;;3.50;3.20;;;18.60;99.90;;;;;;5030827;28;20862;-72
2022/08/31 02:40:19;;;;;;;5.83;3.47;;;18.60;99.90;;;;;;5031191;28;20179;-72
2022/08/31 02:42:45;;;;;;;4.60;2.97;;;18.60;99.90;;;;;;5031527;28;20172;-72
2022/08/31 02:45:10;;;;;;;3.10;2.80;;;18.60;99.90;;;;;;5028719;28;20294;-72
2022/08/31 02:47:36;;;;;;;4.27;3.13;;;18.60;99.90;;;;;;5027589;28;20581;-73
2022/08/31 02:50:04;;;;;;;3.93;3.20;;;18.60;99.90;;;;;;5032015;28;20237;-72
2022/08/31 02:52:30;;;;;;;3.40;3.07;;;18.60;99.90;;;;;;5020580;28;20195;-72
2022/08/31 02:54:55;;;;;;;3.17;2.50;;;18.50;99.90;;;;;;5031208;28;20469;-71
2022/08/31 02:57:21;;;;;;;4.90;3.37;;;18.50;99.90;;;;;;5029051;28;20219;-71
2022/08/31 02:59:47;;;;;;;4.17;3.03;;;18.50;99.90;;;;;;5031991;28;20623;-71
2022/08/31 03:02:13;;;;;;;5.83;2.63;;;18.50;99.90;;;;;;5029407;28;20442;-71
2022/08/31 03:04:39;;;;;;;10.33;3.43;;;18.40;99.90;;;;;;5030731;28;20195;-71
2022/08/31 03:07:05;;;;;;;3.57;2.90;;;18.40;99.90;;;;;;5031478;28;20274;-72
2022/08/31 03:09:31;;;;;;;3.70;3.40;;;18.30;99.90;;;;;;5032176;28;20850;-72
2022/08/31 03:11:57;;;;;;;3.43;2.63;;;18.40;99.90;;;;;;5031321;28;20176;-72
2022/08/31 03:14:23;;;;;;;3.20;2.83;;;18.40;99.90;;;;;;5031799;28;20425;-72
2022/08/31 03:16:49;;;;;;;3.90;2.80;;;18.30;99.90;;;;;;5029320;28;20445;-72
2022/08/31 03:19:14;;;;;;;6.43;3.70;;;18.30;99.90;;;;;;5029261;28;20640;-74
2022/08/31 03:21:40;;;;;;;7.37;4.20;;;18.30;99.90;;;;;;5028458;28;20229;-73
2022/08/31 03:24:06;;;;;;;6.40;3.63;;;18.30;99.90;;;;;;5030988;28;20270;-72
2022/08/31 03:26:31;;;;;;;5.10;3.47;;;18.30;99.90;;;;;;5031136;28;20175;-73
2022/08/31 03:28:57;;;;;;;2.70;2.37;;;18.30;99.90;;;;;;5029778;28;20179;-72
2022/08/31 03:31:23;;;;;;;3.87;2.73;;;18.30;99.90;;;;;;5031227;28;20195;-72
2022/08/31 03:33:49;;;;;;;5.07;3.03;;;18.30;99.90;;;;;;5029809;28;20214;-72
2022/08/31 03:36:15;;;;;;;5.60;3.97;;;18.20;99.90;;;;;;5028830;28;20466;-72
2022/08/31 03:38:41;;;;;;;3.40;3.10;;;18.20;99.90;;;;;;5029234;28;20536;-72
2022/08/31 03:41:07;;;;;;;3.10;2.80;;;18.20;99.90;;;;;;5030418;28;20520;-72
2022/08/31 03:43:34;;;;;;;4.50;3.20;;;18.20;99.90;;;;;;5026702;28;20990;-72
2022/08/31 03:46:00;;;;;;;4.40;3.00;;;18.20;99.90;;;;;;5031364;28;20257;-72
2022/08/31 03:48:25;;;;;;;7.33;3.50;;;18.20;99.90;;;;;;5030198;28;20477;-72
2022/08/31 03:50:51;;;;;;;3.77;3.37;;;18.20;99.90;;;;;;5031257;28;20603;-73
2022/08/31 03:53:17;;;;;;;7.97;3.60;;;18.30;99.90;;;;;;5030325;28;20672;-73
2022/08/31 03:55:42;;;;;;;3.50;3.00;;;18.20;99.90;;;;;;5030493;28;20222;-73
2022/08/31 03:58:09;;;;;;;3.20;2.43;;;18.20;99.90;;;;;;5027789;28;20433;-73
2022/08/31 04:00:35;;;;;;;3.97;3.23;;;18.30;99.90;;;;;;5029465;28;20644;-72
2022/08/31 04:03:02;;;;;;;4.97;3.30;;;18.20;99.90;;;;;;5030509;28;20454;-72
2022/08/31 04:05:33;;;;;;;3.70;3.10;;;18.20;99.90;;;;;;5030416;28;20956;-73
2022/08/31 04:07:58;;;;;;;5.20;3.10;;;18.20;99.90;;;;;;5028947;28;20846;-72
2022/08/31 04:10:24;;;;;;;5.47;3.43;;;18.10;99.90;;;;;;5029186;28;20448;-71
2022/08/31 04:12:50;;;;;;;4.30;3.33;;;18.10;99.90;;;;;;5033155;28;20188;-71
2022/08/31 04:15:17;;;;;;;4.30;3.60;;;18.10;99.90;;;;;;5033410;28;20213;-73
2022/08/31 04:17:45;;;;;;;4.33;3.23;;;18.10;99.90;;;;;;5034579;28;20915;-72
2022/08/31 04:20:11;;;;;;;4.57;2.80;;;18.10;99.90;;;;;;5033449;28;20434;-72
2022/08/31 04:22:36;;;;;;;4.40;3.93;;;18.10;99.90;;;;;;5033017;28;20449;-73
2022/08/31 04:25:03;;;;;;;4.03;3.63;;;18.10;99.90;;;;;;5034382;28;20172;-73
2022/08/31 04:27:28;;;;;;;4.50;3.90;;;18.10;99.90;;;;;;5033412;28;20183;-73
2022/08/31 04:29:54;;;;;;;5.47;3.63;;;18.10;99.90;;;;;;5032749;28;20449;-72
2022/08/31 04:32:19;;;;;;;7.87;3.83;;;18.10;99.90;;;;;;5029925;28;20663;-73
2022/08/31 04:34:45;;;;;;;6.23;3.97;;;18.10;99.90;;;;;;5031932;28;20207;-72
2022/08/31 04:37:13;;;;;;;6.00;4.00;;;18.10;99.90;;;;;;5029784;28;20184;-72
2022/08/31 04:39:39;;;;;;;4.97;4.27;;;18.10;99.90;;;;;;5034120;28;20200;-72
2022/08/31 04:42:05;;;;;;;4.83;3.67;;;18.00;99.90;;;;;;5032885;28;20426;-74
2022/08/31 04:44:31;;;;;;;7.10;4.10;;;18.00;99.90;;;;;;5031444;28;20476;-71
2022/08/31 04:46:56;;;;;;;3.77;3.00;;;18.00;99.90;;;;;;5034291;28;20170;-72
2022/08/31 04:49:22;;;;;;;6.10;4.00;;;18.00;99.90;;;;;;5035201;28;20518;-72
2022/08/31 04:51:47;;;;;;;6.40;4.17;;;18.00;99.90;;;;;;5033084;28;20187;-71
2022/08/31 04:54:13;;;;;;;5.73;4.13;;;17.90;99.90;;;;;;5038795;28;20191;-72
2022/08/31 04:56:41;;;;;;;4.13;3.70;;;17.90;99.90;;;;;;5029005;28;20204;-72
2022/08/31 04:59:10;;;;;;;6.20;4.30;;;18.00;99.90;;;;;;5033782;28;20625;-71
2022/08/31 05:01:39;;;;;;;6.10;4.90;;;17.90;99.90;;;;;;5029108;28;20426;-72
2022/08/31 05:04:06;;;;;;;9.50;7.10;;;17.90;99.90;;;;;;5031022;28;20442;-72
2022/08/31 05:06:33;;;;;;;5.83;3.93;;;17.90;99.90;;;;;;5030006;28;20540;-71
2022/08/31 05:09:03;;;;;;;7.47;4.77;;;17.90;99.90;;;;;;5034775;28;20390;-72
2022/08/31 05:11:29;;;;;;;6.83;4.30;;;17.90;99.90;;;;;;5032812;28;20480;-73
2022/08/31 05:14:00;;;;;;;5.20;4.70;;;17.90;99.90;;;;;;5033741;28;20904;-73
2022/08/31 05:16:26;;;;;;;7.90;4.17;;;17.90;99.90;;;;;;5029390;28;20534;-72
2022/08/31 05:18:51;;;;;;;6.10;4.37;;;17.80;99.90;;;;;;5033829;28;20481;-72
2022/08/31 05:21:26;;;;;;;6.20;4.37;;;17.80;99.90;;;;;;5033651;28;20174;-72
2022/08/31 05:23:53;;;;;;;6.30;4.30;;;17.90;99.90;;;;;;5031182;28;20192;-73
2022/08/31 05:26:29;;;;;;;5.70;4.70;;;17.90;99.90;;;;;;5033191;28;20426;-72
2022/08/31 05:28:55;;;;;;;3.83;3.20;;;17.90;99.90;;;;;;5034407;28;20438;-73
2022/08/31 05:31:22;;;;;;;5.60;4.50;;;17.90;99.90;;;;;;5032454;28;20465;-73
2022/08/31 05:33:49;;;;;;;5.33;4.47;;;18.00;99.90;;;;;;5033785;28;20449;-73
2022/08/31 05:36:15;;;;;;;4.40;3.23;;;18.00;99.90;;;;;;5032142;28;20988;-73
2022/08/31 05:38:41;;;;;;;5.63;3.90;;;18.10;99.90;;;;;;5034137;28;20822;-73
2022/08/31 05:41:06;;;;;;;13.40;5.00;;;18.10;99.90;;;;;;5048102;28;20453;-73
2022/08/31 05:43:33;;;;;;;4.80;3.50;;;18.20;99.90;;;;;;5033371;28;20199;-72
2022/08/31 05:45:59;;;;;;;4.77;3.70;;;18.30;99.90;;;;;;5025293;28;20190;-72
2022/08/31 05:48:24;;;;;;;5.30;3.83;;;18.30;99.90;;;;;;5031358;28;20493;-72
2022/08/31 05:50:50;;;;;;;4.80;3.87;;;18.40;99.90;;;;;;5027550;28;20466;-72
2022/08/31 05:53:16;;;;;;;3.90;3.47;;;18.40;99.90;;;;;;5033478;28;20195;-72
2022/08/31 05:55:42;;;;;;;5.10;3.83;;;18.40;99.90;;;;;;5030978;28;20191;-72
2022/08/31 05:58:07;;;;;;;5.43;4.50;;;18.40;99.90;;;;;;5033716;28;20793;-74
2022/08/31 06:00:33;;;;;;;10.53;4.47;;;18.50;99.90;;;;;;5031805;28;20176;-73
2022/08/31 06:02:59;;;;;;;5.60;4.60;;;18.60;99.90;;;;;;5031662;28;20262;-73
2022/08/31 06:05:24;;;;;;;6.77;3.50;;;18.60;99.90;;;;;;5027116;28;20200;-73
2022/08/31 06:07:51;;;;;;;6.77;4.13;;;18.60;99.90;;;;;;5027833;28;20175;-73
2022/08/31 06:10:17;;;;;;;5.80;4.10;;;18.60;99.90;;;;;;5034203;28;20183;-73
2022/08/31 06:12:46;;;;;;;6.23;4.10;;;18.70;99.90;;;;;;5031175;28;20442;-72
2022/08/31 06:15:12;;;;;;;5.20;4.20;;;18.80;99.90;;;;;;5031596;28;20974;-73
2022/08/31 06:17:38;;;;;;;5.20;4.20;;;18.80;99.90;;;;;;5032893;28;20453;-72
2022/08/31 06:20:04;;;;;;;4.17;3.80;;;18.90;99.90;;;;;;5033028;28;20413;-72
2022/08/31 06:22:33;;;;;;;5.30;4.13;;;19.00;99.90;;;;;;5032745;28;20414;-73
2022/08/31 06:24:58;;;;;;;6.17;4.30;;;19.10;99.90;;;;;;5033370;28;20919;-73
2022/08/31 06:27:25;;;;;;;5.23;3.73;;;19.20;99.90;;;;;;5033839;28;20517;-72
2022/08/31 06:29:51;;;;;;;5.47;3.73;;;19.50;99.90;;;;;;5033159;28;20175;-73
2022/08/31 06:32:18;;;;;;;4.17;3.60;;;19.70;99.90;;;;;;5032805;28;20422;-74
2022/08/31 06:34:44;;;;;;;5.57;4.30;;;19.80;99.90;;;;;;5032088;28;20237;-73
2022/08/31 06:37:11;;;;;;;6.43;3.47;;;19.90;99.90;;;;;;5033404;28;20406;-73
2022/08/31 06:39:37;;;;;;;4.20;3.77;;;19.90;99.90;;;;;;5033516;28;20222;-74
2022/08/31 06:42:03;;;;;;;4.10;3.57;;;19.90;99.90;;;;;;5033155;28;20418;-73
2022/08/31 06:44:28;;;;;;;14.23;4.10;;;19.90;99.90;;;;;;5031624;28;20429;-73
2022/08/31 06:46:54;;;;;;;3.90;3.23;;;19.90;99.90;;;;;;5031323;28;20199;-74
2022/08/31 06:49:21;;;;;;;6.00;4.07;;;19.80;99.90;;;;;;5032774;28;20172;-74
2022/08/31 06:51:47;;;;;;;8.20;4.90;;;19.80;99.90;;;;;;5032488;28;20274;-73
2022/08/31 06:54:14;;;;;;;4.97;4.17;;;19.90;99.90;;;;;;5032439;28;20509;-72
2022/08/31 06:56:39;;;;;;;6.50;4.47;;;19.80;99.90;;;;;;5032994;28;20230;-73
2022/08/31 06:59:06;;;;;;;4.73;4.20;;;19.80;99.90;;;;;;5033009;28;20453;-73
2022/08/31 07:01:34;;;;;;;4.63;4.20;;;19.80;99.90;;;;;;5033144;28;20168;-73
2022/08/31 07:04:01;;;;;;;6.03;4.17;;;19.80;99.90;;;;;;5032449;28;20437;-73
2022/08/31 07:06:30;;;;;;;4.73;4.23;;;19.80;99.90;;;;;;5031231;28;20418;-73
2022/08/31 07:08:59;;;;;;;5.50;3.80;;;19.80;99.90;;;;;;5048053;28;20464;-73
2022/08/31 07:11:34;;;;;;;5.80;5.13;;;19.70;99.90;;;;;;5032289;28;20429;-73
2022/08/31 07:14:03;;;;;;;6.00;4.73;;;19.80;99.90;;;;;;5032940;28;20841;-71
2022/08/31 07:16:29;;;;;;;4.17;3.80;;;19.80;99.90;;;;;;5032647;28;20454;-73
2022/08/31 07:18:58;;;;;;;5.20;3.80;;;19.80;99.90;;;;;;5032167;28;20433;-72
2022/08/31 07:21:29;;;;;;;4.90;3.97;;;19.80;99.90;;;;;;5030948;28;20421;-72
2022/08/31 07:23:57;;;;;;;8.70;5.93;;;19.80;99.90;;;;;;5032035;28;20446;-73
2022/08/31 07:26:27;;;;;;;5.83;4.03;;;19.90;99.90;;;;;;5031988;28;20418;-73
2022/08/31 07:28:56;;;;;;;6.23;5.20;;;19.80;99.90;;;;;;5032032;28;20460;-72
2022/08/31 07:31:26;;;;;;;4.53;4.13;;;19.80;99.90;;;;;;5032759;28;20417;-71
2022/08/31 07:33:54;;;;;;;5.53;3.97;;;19.80;99.90;;;;;;5031937;28;20433;-71
2022/08/31 07:36:22;;;;;;;6.10;4.23;;;19.90;99.90;;;;;;5031522;28;20871;-72
2022/08/31 07:44:18;;;;;;;5.73;4.60;;;20.00;99.90;;;;;;5032473;28;20464;-72
2022/08/31 07:46:46;;;;;;;13.23;4.70;;;20.00;99.90;;;;;;5034127;28;20436;-73
2022/08/31 07:49:13;;;;;;;5.47;4.13;;;20.10;99.90;;;;;;5036794;28;20406;-72
2022/08/31 07:51:44;;;;;;;5.57;4.10;;;20.10;99.90;;;;;;5035118;28;20441;-72
2022/08/31 07:54:12;;;;;;;5.70;4.50;;;20.10;99.90;;;;;;5036772;28;20509;-72
2022/08/31 07:56:40;;;;;;;5.67;5.07;;;20.30;99.90;;;;;;5036483;28;20946;-72
2022/08/31 07:59:07;;;;;;;7.80;4.93;;;20.40;99.90;;;;;;5038179;28;20408;-72
2022/08/31 08:01:36;;;;;;;9.67;5.77;;;20.60;99.90;;;;;;5038532;28;20429;-72
2022/08/31 08:04:02;;;;;;;4.70;4.30;;;20.80;99.90;;;;;;5038311;28;21077;-72
2022/08/31 08:06:29;;;;;;;5.00;3.40;;;21.10;99.90;;;;;;5037288;28;20410;-72
2022/08/31 08:09:02;;;;;;;5.57;4.77;;;21.40;99.90;;;;;;5036523;28;21036;-72
2022/08/31 08:11:27;;;;;;;5.57;4.63;;;21.70;99.90;;;;;;5036276;28;20970;-72
2022/08/31 08:13:53;;;;;;;7.90;4.13;;;22.10;99.90;;;;;;5035994;28;20442;-72
2022/08/31 08:16:18;;;;;;;5.90;4.50;;;22.40;99.90;;;;;;5034266;28;20278;-72
2022/08/31 08:18:44;;;;;;;8.07;3.50;;;22.80;99.90;;;;;;5036190;28;20199;-72
2022/08/31 08:21:09;;;;;;;7.40;4.40;;;23.20;99.90;;;;;;5035911;28;20682;-73
2022/08/31 08:23:35;;;;;;;4.00;3.60;;;23.70;99.90;;;;;;5036587;28;20190;-72
2022/08/31 08:26:07;;;;;;;5.80;4.80;;;24.20;99.90;;;;;;5036092;28;20675;-72
2022/08/31 08:28:33;;;;;;;5.40;3.90;;;24.50;99.90;;;;;;5036047;28;20179;-72
2022/08/31 08:31:01;;;;;;;4.60;3.80;;;24.80;99.90;;;;;;5036243;28;20406;-72
2022/08/31 08:33:29;;;;;;;5.93;4.20;;;25.10;99.90;;;;;;5036265;28;20266;-72
2022/08/31 08:35:57;;;;;;;5.13;4.63;;;25.30;99.90;;;;;;5034641;28;20461;-73
2022/08/31 08:38:24;;;;;;;5.23;4.00;;;25.60;99.90;;;;;;5035316;28;20407;-72
2022/08/31 08:40:50;;;;;;;3.90;3.50;;;25.90;99.90;;;;;;5036588;28;20887;-73
2022/08/31 08:43:18;;;;;;;5.30;4.23;;;26.10;99.90;;;;;;5034709;28;20492;-72
2022/08/31 08:45:47;;;;;;;4.63;3.93;;;26.40;99.90;;;;;;5036256;28;20509;-72
2022/08/31 08:48:16;;;;;;;4.73;4.10;;;26.80;99.90;;;;;;5036227;28;20430;-73
2022/08/31 08:50:42;;;;;;;4.17;3.77;;;27.10;99.90;;;;;;5035282;28;20459;-73
2022/08/31 08:53:11;;;;;;;5.83;3.70;;;27.50;99.90;;;;;;5036582;28;20846;-73
2022/08/31 08:55:40;;;;;;;5.23;4.70;;;27.90;99.90;;;;;;5036300;28;20460;-73
2022/08/31 08:58:09;;;;;;;7.33;4.00;;;28.50;99.90;;;;;;5036706;28;20406;-73
2022/08/31 09:00:36;;;;;;;4.90;4.30;;;29.30;99.90;;;;;;5036156;28;20485;-73
2022/08/31 09:03:29;;;;;;;5.00;4.50;;;29.90;99.90;;;;;;5035557;28;21008;-73
2022/08/31 09:06:09;;;;;;;5.03;4.30;;;30.40;99.90;;;;;;5035261;28;20406;-73
2022/08/31 09:08:47;;;;;;;5.80;5.03;;;30.90;94.10;;;;;;5034485;28;20500;-73
2022/08/31 09:11:45;;;;;;;4.70;4.13;;;31.30;90.80;;;;;;5035344;28;20398;-73
2022/08/31 09:14:16;;;;;;;4.90;4.10;;;31.50;84.70;;;;;;5033948;28;20495;-73
2022/08/31 09:17:24;;;;;;;5.47;4.97;;;31.30;85.50;;;;;;5033996;28;20465;-73
2022/08/31 09:19:59;;;;;;;7.00;5.20;;;31.70;84.00;;;;;;5033323;28;20501;-73
2022/08/31 09:22:32;;;;;;;3.47;3.13;;;32.10;84.30;;;;;;5035233;28;20445;-73
2022/08/31 09:24:58;;;;;;;5.40;4.13;;;33.30;77.10;;;;;;5034871;28;20509;-73
2022/08/31 09:27:56;;;;;;;4.90;4.10;;;34.20;70.60;;;;;;5035571;28;20453;-73
2022/08/31 09:30:43;;;;;;;5.23;4.73;;;35.70;61.40;;;;;;5035555;28;20949;-71
2022/08/31 09:33:22;;;;;;;4.77;4.20;;;37.50;54.60;;;;;;5034915;28;20449;-72
2022/08/31 09:35:54;;;;;;;5.30;4.60;;;39.20;49.30;;;;;;5034890;28;20989;-72
2022/08/31 09:38:35;;;;;;;4.43;4.00;;;40.30;46.40;;;;;;5035606;28;20398;-72
2022/08/31 09:41:02;;;;;;;6.20;4.60;;;41.70;44.10;;;;;;5035178;28;20425;-72
2022/08/31 09:43:36;;;;;;;5.10;4.20;;;42.60;41.30;;;;;;5035106;28;20437;-71
2022/08/31 09:46:04;;;;;;;4.50;4.10;;;43.30;39.50;;;;;;5035058;28;20402;-71
2022/08/31 09:48:50;;;;;;;4.50;4.20;;;44.30;37.70;;;;;;5034781;28;20422;-72
2022/08/31 09:51:34;;;;;;;4.67;4.27;;;44.00;36.70;;;;;;5033538;28;20433;-72
2022/08/31 09:56:56;;;;;;;5.00;4.50;;;42.30;37.60;;;;;;5034836;28;20457;-71
2022/08/31 09:59:38;;;;;;;4.60;4.20;;;40.80;37.90;;;;;;5033518;28;20501;-72
2022/08/31 10:02:24;;;;;;;6.67;4.40;;;40.00;39.20;;;;;;5034514;28;20417;-72
2022/08/31 10:05:04;;;;;;;4.60;4.20;;;40.20;40.80;;;;;;5034488;28;20411;-72
2022/08/31 10:08:12;;;;;;;4.50;4.10;;;41.20;39.10;;;;;;5034636;28;20396;-72
2022/08/31 10:10:39;;;;;;;4.27;3.90;;;41.90;37.70;;;;;;5031770;28;20413;-72
2022/08/31 10:13:20;;;;;;;3.97;3.67;;;43.00;36.60;;;;;;5034435;28;20405;-72
2022/08/31 10:15:53;;;;;;;3.47;3.17;;;43.60;34.30;;;;;;5032953;28;20428;-72
2022/08/31 10:18:38;;;;;;;3.93;3.60;;;44.40;34.30;;;;;;5034683;28;20369;-72
2022/08/31 10:21:11;;;;;;;3.33;3.03;;;45.10;35.30;;;;;;5034251;28;20738;-72
2022/08/31 10:23:41;;;;;;;3.47;3.17;;;45.80;32.20;;;;;;5033227;28;20433;-72
2022/08/31 10:26:16;;;;;;;4.23;3.83;;;46.60;30.70;;;;;;5034082;28;20901;-72
2022/08/31 10:28:50;;;;;;;3.30;3.07;;;46.60;32.20;;;;;;5049887;28;20395;-72
2022/08/31 10:31:28;;;;;;;3.67;3.20;;;46.30;30.40;;;;;;5033191;28;20881;-72
2022/08/31 10:36:58;;;;;;;3.80;3.40;;;44.80;31.90;;;;;;5033900;28;20465;-71
2022/08/31 10:39:38;;;;;;;3.13;2.83;;;45.10;31.50;;;;;;5034286;28;20393;-72
2022/08/31 10:42:09;;;;;;;5.67;3.90;;;45.00;30.70;;;;;;5033185;28;20475;-72
2022/08/31 10:44:55;;;;;;;4.33;2.83;;;45.20;30.00;;;;;;5033770;28;20413;-72
2022/08/31 10:47:27;;;;;;;3.07;2.87;;;45.90;31.40;;;;;;5033919;28;20461;-72
2022/08/31 10:49:55;;;;;;;2.83;2.63;;;45.90;29.00;;;;;;5033797;28;20775;-72
2022/08/31 10:52:31;;;;;;;3.70;3.40;;;44.70;29.80;;;;;;5033572;28;20393;-71
2022/08/31 10:54:56;;;;;;;3.70;3.40;;;43.50;30.00;;;;;;5032933;28;20438;-71
2022/08/31 10:57:43;;;;;;;3.50;3.20;;;42.30;31.40;;;;;;5033661;28;20402;-72
2022/08/31 11:03:17;;;;;;;3.10;2.80;;;39.70;34.20;;;;;;5033802;28;20767;-71
2022/08/31 11:06:02;;;;;;;5.70;4.10;;;38.60;36.20;;;;;;5032680;28;20406;-71
2022/08/31 11:08:56;;;;;;;3.03;2.73;;;37.80;35.60;;;;;;5038594;28;20448;-72
2022/08/31 11:11:50;;;;;;;3.57;3.27;;;36.10;37.30;;;;;;5013309;28;20399;-71
2022/08/31 11:14:43;;;;;;;3.17;2.87;;;35.20;40.30;;;;;;5022136;28;20496;-71
2022/08/31 11:17:28;;;;;;;3.20;2.90;;;34.90;41.60;;;;;;5025350;28;20434;-71
2022/08/31 11:20:27;;;;;;;2.87;2.67;;;34.70;41.00;;;;;;5032930;28;20406;-71
2022/08/31 11:23:25;;;;;;;4.13;3.43;;;34.40;41.60;;;;;;5032581;28;20493;-71
2022/08/31 11:26:25;;;;;;;3.97;3.60;;;34.40;42.70;;;;;;5032755;28;20398;-71
2022/08/31 11:29:12;;;;;;;3.27;3.00;;;34.50;42.50;;;;;;5032140;28;20406;-71
2022/08/31 11:31:39;;;;;;;3.43;3.13;;;34.60;41.70;;;;;;5031935;28;20918;-71
2022/08/31 11:34:14;;;;;;;3.10;2.80;;;34.50;42.70;;;;;;5032749;28;20845;-71
2022/08/31 11:36:59;;;;;;;3.30;3.00;;;34.60;42.30;;;;;;5032741;28;20484;-71
2022/08/31 11:39:36;;;;;;;3.50;3.20;;;34.80;41.60;;;;;;5048529;28;20418;-71
2022/08/31 11:42:25;;;;;;;4.63;3.70;;;35.00;41.80;;;;;;5032915;28;20452;-72
2022/08/31 11:45:25;;;;;;;3.57;3.30;;;35.40;41.20;;;;;;5032551;28;20457;-71
2022/08/31 11:47:53;;;;;;;3.40;3.10;;;35.30;40.90;;;;;;5032377;28;20413;-71
2022/08/31 11:50:22;;;;;;;4.70;3.53;;;35.20;41.30;;;;;;5032803;28;20847;-72
2022/08/31 11:52:52;;;;;;;4.43;3.63;;;35.00;41.30;;;;;;5032267;28;20418;-71
2022/08/31 11:55:27;;;;;;;3.23;2.60;;;34.80;41.80;;;;;;5032319;28;20445;-71
2022/08/31 11:58:10;;;;;;;4.13;3.80;;;35.00;42.40;;;;;;5032705;28;20851;-71
2022/08/31 12:00:46;;;;;;;3.80;3.50;;;35.10;42.50;;;;;;5032451;28;20404;-71
2022/08/31 12:03:32;;;;;;;3.70;3.40;;;35.00;42.00;;;;;;5031212;28;20442;-71
2022/08/31 12:05:58;;;;;;;3.30;3.10;;;34.80;42.80;;;;;;5033192;28;20405;-72
2022/08/31 12:08:31;;;;;;;4.80;4.03;;;35.60;42.40;;;;;;5033976;28;20759;-72
2022/08/31 12:11:10;;;;;;;3.63;3.33;;;36.10;41.60;;;;;;5032185;28;20186;-71
2022/08/31 12:13:50;;;;;;;3.20;2.90;;;36.90;39.80;;;;;;5032973;28;20457;-72
2022/08/31 12:16:50;;;;;;;5.50;3.30;;;37.90;40.60;;;;;;5032902;28;20466;-74
2022/08/31 12:25:47;;;;;;;3.43;3.13;;;40.10;35.90;;;;;;5032033;28;20394;-71
2022/08/31 12:28:38;;;;;;;5.30;3.73;;;39.50;36.40;;;;;;5032438;28;20469;-71
2022/08/31 12:31:11;;;;;;;3.30;3.00;;;39.30;36.80;;;;;;5032137;28;20437;-71
2022/08/31 12:33:44;;;;;;;3.43;3.13;;;39.50;37.10;;;;;;5035461;28;20521;-71
2022/08/31 12:36:23;;;;;;;4.00;2.50;;;40.00;35.20;;;;;;5036042;28;20946;-71
2022/08/31 12:39:05;;;;;;;3.10;2.87;;;40.10;35.70;;;;;;5036149;28;20402;-71
2022/08/31 12:41:32;;;;;;;3.90;3.10;;;41.30;35.30;;;;;;5036295;28;20493;-72
2022/08/31 12:43:57;;;;;;;3.37;3.07;;;42.20;32.60;;;;;;5035839;28;20446;-71
2022/08/31 12:46:51;;;;;;;3.97;3.20;;;42.70;30.80;;;;;;5035835;28;20393;-72
2022/08/31 12:49:38;;;;;;;2.40;2.20;;;42.50;30.80;;;;;;5036176;28;20259;-71
2022/08/31 12:52:14;;;;;;;2.40;2.30;;;42.30;30.60;;;;;;5036135;28;20825;-71
2022/08/31 12:55:22;;;;;;;2.93;2.73;;;42.40;30.20;;;;;;5035312;28;20425;-72
2022/08/31 12:57:57;;;;;;;2.93;2.67;;;42.30;30.30;;;;;;5035655;28;20407;-71
2022/08/31 13:00:30;;;;;;;3.00;2.63;;;42.40;30.10;;;;;;5036043;28;20514;-71
2022/08/31 13:03:00;;;;;;;2.60;2.40;;;42.70;29.90;;;;;;5035520;28;20902;-72
2022/08/31 13:05:30;;;;;;;3.40;2.47;;;43.20;29.10;;;;;;5034541;28;20414;-72
2022/08/31 13:07:56;;;;;;;2.40;2.20;;;43.50;29.70;;;;;;5034816;28;20786;-72
2022/08/31 13:10:35;;;;;;;3.10;2.90;;;43.90;29.50;;;;;;5035634;28;20388;-72
2022/08/31 13:13:07;;;;;;;3.23;3.03;;;44.20;29.50;;;;;;5034605;28;20419;-72
2022/08/31 13:15:42;;;;;;;2.93;2.73;;;44.80;28.40;;;;;;5035194;28;20435;-72
2022/08/31 13:18:14;;;;;;;3.30;3.00;;;45.60;29.00;;;;;;5035638;28;20398;-72
2022/08/31 13:20:45;;;;;;;3.13;2.93;;;45.40;27.20;;;;;;5035793;28;20384;-72
2022/08/31 13:23:50;;;;;;;3.13;2.83;;;45.20;27.70;;;;;;5034760;28;20433;-72
2022/08/31 13:26:23;;;;;;;3.40;3.10;;;44.70;27.90;;;;;;5011141;28;20473;-72
2022/08/31 13:28:59;;;;;;;2.97;2.77;;;43.50;27.90;;;;;;5015942;28;20415;-72